ULLI/LED METAR and TAF weather

Enter ICAO airport designator
Station Type Date Time Source
ULLI METAR 2018/07/19 07:30 UTC NOAA

ULLI 190730Z 04005MPS 020V080 CAVOK 25/15 Q1011 R10R/090060 NOSIG


Station Type Date Time Source
ULLI Decoded METAR 2018/07/19 07:30 UTC NOAA

St. Peterburg, Russia (ULLI) 59-58N 030-18E 6M
Jul 19, 2018 - 03:30 AM EDT / 2018.07.19 0730 UTC
Wind: from the NE (040 degrees) at 11 MPH (10 KT) (direction variable):0
Visibility: greater than 7 mile(s):0
Temperature: 77 F (25 C)
Dew Point: 59 F (15 C)
Relative Humidity: 53%
Pressure (altimeter): 29.85 in. Hg (1011 hPa)
ob: ULLI 190730Z 04005MPS 020V080 CAVOK 25/15 Q1011 R10R/090060 NOSIG
cycle: 7

Station Type Date Time Source
ULLI TAF 2018/07/19 06:21 UTC NOAA

TAF TAF ULLI 190458Z 1906/2006 06005G10MPS 9999 BKN030
TEMPO 1909/1915 05008G13MPS
TEMPO 2000/2006 04003G08MPS 3100 -SHRA BR BKN011 BKN020CB


Example: see airport list